Time;durP1;ratioP1;P1;durP2;ratioP2;P2;SDS_P1;SDS_P2;PMS_P1;PMS_P2;Temp;Humidity;BMP_temperature;BMP_pressure;BME280_temperature;BME280_humidity;BME280_pressure;Samples;Min_cycle;Max_cycle;Signal;HPM_P1;HPM_P2
2021/07/06 00:01:57;;;;;;;4.83;1.00;;;;;;;22.02;71.74;98947.48;1761571;80;21591;-53
2021/07/06 00:04:23;;;;;;;1.77;1.22;;;;;;;21.97;71.87;98937.48;1758929;80;22397;-53
2021/07/06 00:06:49;;;;;;;9.05;2.35;;;;;;;21.89;72.00;98939.17;1760773;80;21054;-54
2021/07/06 00:09:16;;;;;;;7.25;1.05;;;;;;;;;;1768794;80;21385;-54
2021/07/06 00:11:43;;;;;;;4.70;1.05;;;;;;;21.79;72.22;98956.25;1764301;80;21139;-53
2021/07/06 00:14:10;;;;;;;3.37;1.10;;;;;;;21.76;72.39;98956.59;1762051;80;22324;-53
2021/07/06 00:16:37;;;;;;;5.28;1.80;;;;;;;21.72;72.49;98957.93;1764015;80;21050;-53
2021/07/06 00:19:05;;;;;;;3.80;1.20;;;;;;;21.69;72.60;98958.79;1765659;80;21102;-54
2021/07/06 00:21:31;;;;;;;3.72;0.80;;;;;;;21.65;72.78;98961.49;1777765;79;21093;-52
2021/07/06 00:23:58;;;;;;;1.42;1.00;;;;;;;21.63;72.92;98963.02;1783246;79;21205;-52
2021/07/06 00:26:24;;;;;;;1.00;0.90;;;;;;;21.62;72.98;98964.03;1770571;79;21040;-53
2021/07/06 00:28:51;;;;;;;2.58;1.37;;;;;;;21.61;73.12;98964.19;1762176;80;21678;-53
2021/07/06 00:31:17;;;;;;;2.60;1.50;;;;;;;21.59;73.09;98970.37;1779132;79;21239;-53
2021/07/06 00:33:44;;;;;;;3.67;1.15;;;;;;;21.56;73.17;98967.94;1775455;79;21078;-53
2021/07/06 00:36:11;;;;;;;5.87;1.60;;;;;;;21.53;73.28;98971.34;1771851;79;21176;-53
2021/07/06 00:38:37;;;;;;;2.95;1.00;;;;;;;21.49;73.32;98968.60;1797168;79;21037;-53
2021/07/06 00:41:04;;;;;;;1.45;0.90;;;;;;;21.46;73.43;98968.05;1777978;79;21520;-54
2021/07/06 00:43:30;;;;;;;1.47;0.90;;;;;;;21.42;73.48;98964.80;1780263;79;21492;-54
2021/07/06 00:45:57;;;;;;;1.37;0.98;;;;;;;21.39;73.52;98969.72;1781362;79;21069;-55
2021/07/06 00:48:27;;;;;;;0.80;0.80;;;;;;;21.35;73.63;98968.34;1767726;79;21703;-55
2021/07/06 00:50:53;;;;;;;2.55;1.10;;;;;;;21.33;73.67;98964.39;1780171;79;21730;-52
2021/07/06 00:53:20;;;;;;;2.72;1.15;;;;;;;21.32;73.68;98964.55;1779368;79;21457;-54
2021/07/06 00:55:50;;;;;;;1.15;0.90;;;;;;;21.29;73.72;98967.59;1780488;79;21298;-52
2021/07/06 00:58:17;;;;;;;4.33;1.42;;;;;;;21.26;73.79;98974.78;1753298;79;21045;-54
2021/07/06 01:00:43;;;;;;;6.83;0.93;;;;;;;21.22;73.90;98972.00;1779390;79;21105;-53
2021/07/06 01:03:10;;;;;;;1.55;0.80;;;;;;;21.18;74.03;98973.36;1777864;78;21064;-54
2021/07/06 01:05:37;;;;;;;1.10;0.90;;;;;;;21.14;74.08;98975.00;1778928;79;21093;-54
2021/07/06 01:08:05;;;;;;;1.85;0.90;;;;;;;21.12;74.24;98974.30;1774791;79;21088;-54
2021/07/06 01:10:32;;;;;;;1.22;0.90;;;;;;;21.11;74.29;98973.94;1777335;79;21426;-52
2021/07/06 01:12:58;;;;;;;2.40;1.00;;;;;;;21.10;74.14;98967.25;1780655;79;21402;-54
2021/07/06 01:15:26;;;;;;;1.15;0.90;;;;;;;21.10;74.18;98970.84;1779524;79;21775;-53
2021/07/06 01:18:10;;;;;;;1.27;1.17;;;;;;;21.11;74.13;98971.20;1778778;79;21378;-54
2021/07/06 01:20:38;;;;;;;3.00;1.00;;;;;;;21.12;74.02;98971.55;1776801;79;21093;-53
2021/07/06 01:23:06;;;;;;;1.98;1.20;;;;;;;21.14;73.78;98975.50;1784423;79;20947;-52
2021/07/06 01:25:34;;;;;;;3.35;1.10;;;;;;;21.14;73.78;98976.37;1781099;79;21100;-51
2021/07/06 01:28:02;;;;;;;3.58;1.22;;;;;;;21.14;73.65;98980.98;1753382;79;21116;-54
2021/07/06 01:30:29;;;;;;;2.75;1.00;;;;;;;21.14;73.71;98986.45;1761203;80;21089;-54
2021/07/06 01:32:55;;;;;;;2.40;1.10;;;;;;;21.15;73.75;98985.44;1759617;80;21059;-51
2021/07/06 01:35:22;;;;;;;1.27;0.88;;;;;;;21.15;73.73;98990.91;1768250;79;21033;-52
2021/07/06 01:37:52;;;;;;;1.72;0.90;;;;;;;21.15;73.70;98997.24;1763006;80;21696;-52
2021/07/06 01:40:19;;;;;;;3.83;0.80;;;;;;;21.19;73.66;98995.06;1799723;78;20906;-52
2021/07/06 01:42:48;;;;;;;1.20;1.10;;;;;;;21.23;73.63;99003.83;1765699;80;20954;-54
2021/07/06 01:45:17;;;;;;;1.20;1.00;;;;;;;21.25;73.55;99001.80;1774679;79;20979;-53
2021/07/06 01:47:47;;;;;;;1.15;1.05;;;;;;;21.25;73.50;99004.03;1762977;80;21076;-53
2021/07/06 01:50:20;;;;;;;1.77;1.20;;;;;;;21.25;73.22;99005.39;1769014;79;21137;-52
2021/07/06 01:52:49;;;;;;;2.85;1.00;;;;;;;21.29;73.29;98997.70;1768254;80;20964;-51
2021/07/06 01:55:19;;;;;;;1.02;0.90;;;;;;;21.28;73.04;99001.45;1780606;79;21347;-51
2021/07/06 01:57:46;;;;;;;1.32;0.90;;;;;;;21.30;73.19;99011.75;1762355;80;20998;-52
2021/07/06 02:00:14;;;;;;;2.08;1.00;;;;;;;21.29;73.31;99007.28;1766828;80;21053;-53
2021/07/06 02:02:41;;;;;;;1.25;0.93;;;;;;;21.26;73.42;99012.59;1769559;79;21035;-54
2021/07/06 02:05:19;;;;;;;3.47;1.00;;;;;;;21.25;73.52;99014.11;1763851;80;20944;-53
2021/07/06 02:07:46;;;;;;;1.30;0.90;;;;;;;21.23;73.53;99020.25;1759005;80;20912;-54
2021/07/06 02:10:13;;;;;;;4.15;1.05;;;;;;;21.20;73.61;99015.08;1764352;80;21174;-53
2021/07/06 02:12:40;;;;;;;5.25;1.22;;;;;;;21.18;73.68;99022.08;1792465;78;21640;-51
2021/07/06 02:15:09;;;;;;;1.92;1.00;;;;;;;21.17;73.73;99026.33;1791992;78;21724;-53
2021/07/06 02:17:35;;;;;;;3.12;2.05;;;;;;;21.15;73.80;99021.02;1765220;80;20926;-52
2021/07/06 02:20:07;;;;;;;4.25;1.00;;;;;;;21.14;73.76;99022.89;1762503;80;21072;-53
2021/07/06 02:22:35;;;;;;;2.50;1.00;;;;;;;21.13;73.82;99025.77;1767351;80;20975;-54
2021/07/06 02:25:01;;;;;;;2.25;1.42;;;;;;;21.11;73.88;99031.41;1762114;80;20926;-54
2021/07/06 02:27:28;;;;;;;3.50;1.10;;;;;;;21.11;74.02;99036.88;1763709;80;21105;-53
2021/07/06 02:29:54;;;;;;;2.47;0.90;;;;;;;21.13;74.07;99037.58;1791114;78;21081;-53
2021/07/06 02:32:20;;;;;;;1.65;1.02;;;;;;;21.14;74.21;99039.30;1756839;80;21333;-53
2021/07/06 02:34:47;;;;;;;1.20;1.10;;;;;;;21.17;73.88;99042.75;1778842;79;21665;-52
2021/07/06 02:37:13;;;;;;;2.87;1.37;;;;;;;21.20;73.88;99041.08;1790546;78;21067;-53
2021/07/06 02:39:39;;;;;;;1.75;0.90;;;;;;;21.24;73.78;99038.39;1756526;80;21132;-53
2021/07/06 02:42:06;;;;;;;4.20;1.30;;;;;;;21.27;73.62;99038.05;1765905;80;21050;-53
2021/07/06 02:44:33;;;;;;;2.72;1.15;;;;;;;21.30;73.46;99040.48;1795083;78;20902;-53
2021/07/06 02:46:59;;;;;;;1.42;0.95;;;;;;;21.35;73.80;99044.99;1790525;78;22050;-52
2021/07/06 02:49:25;;;;;;;2.30;0.90;;;;;;;21.39;73.71;99047.23;1790660;78;21113;-51
2021/07/06 02:51:51;;;;;;;3.62;0.85;;;;;;;21.44;72.91;99046.23;1790548;78;21100;-52
2021/07/06 02:54:18;;;;;;;3.80;0.90;;;;;;;21.51;72.60;99049.22;1760022;80;21037;-52
2021/07/06 02:56:45;;;;;;;1.37;0.90;;;;;;;21.59;72.84;99053.38;1764180;79;21147;-53
2021/07/06 02:59:11;;;;;;;2.80;1.07;;;;;;;21.66;72.87;99048.98;1759481;80;21053;-53
2021/07/06 03:01:38;;;;;;;2.40;1.20;;;;;;;21.72;72.40;99051.06;1759261;79;21395;-52
2021/07/06 03:04:04;;;;;;;1.67;1.00;;;;;;;21.80;72.37;99051.62;1762626;80;21106;-52
2021/07/06 03:06:31;;;;;;;1.67;1.25;;;;;;;21.86;71.78;99051.82;1760462;80;22387;-53
2021/07/06 03:08:59;;;;;;;1.77;1.15;;;;;;;21.92;71.54;99056.32;1788293;78;21061;-54
2021/07/06 03:11:26;;;;;;;4.50;1.00;;;;;;;21.96;71.22;99048.11;1764126;80;21684;-54
2021/07/06 03:13:53;;;;;;;4.75;1.07;;;;;;;22.02;71.10;99054.36;1790839;77;21575;-53
2021/07/06 03:16:19;;;;;;;1.60;1.00;;;;;;;22.07;70.75;99056.09;1761560;79;21128;-53
2021/07/06 03:18:47;;;;;;;4.10;1.00;;;;;;;22.12;70.70;99055.07;1758999;80;21037;-52
2021/07/06 03:21:13;;;;;;;1.87;1.10;;;;;;;22.18;70.29;99053.07;1789838;78;21493;-52
2021/07/06 03:23:41;;;;;;;2.70;1.17;;;;;;;22.24;70.15;99064.73;1759626;79;21102;-54
2021/07/06 03:26:07;;;;;;;2.12;1.20;;;;;;;22.27;70.00;99065.79;1759240;80;21448;-52
2021/07/06 03:28:33;;;;;;;1.22;1.02;;;;;;;22.31;69.83;99068.53;1792485;77;21671;-52
2021/07/06 03:30:59;;;;;;;1.27;0.90;;;;;;;22.35;69.86;99071.31;1787114;78;21080;-53
2021/07/06 03:33:26;;;;;;;3.80;0.90;;;;;;;22.40;69.65;99073.03;1788547;78;21065;-54
2021/07/06 03:35:52;;;;;;;1.75;0.95;;;;;;;22.45;69.54;99073.92;1762071;80;21089;-54
2021/07/06 03:38:20;;;;;;;1.17;0.90;;;;;;;22.51;69.13;99067.25;1756366;80;21124;-53
2021/07/06 03:40:46;;;;;;;1.30;1.12;;;;;;;22.54;68.97;99075.12;1766242;80;21101;-52
2021/07/06 03:43:13;;;;;;;2.67;1.50;;;;;;;22.56;68.82;99063.48;1792610;78;21049;-54
2021/07/06 03:45:41;;;;;;;2.15;1.20;;;;;;;22.60;68.63;99066.77;1760521;80;21080;-53
2021/07/06 03:48:07;;;;;;;1.40;1.20;;;;;;;22.62;68.42;99068.33;1790671;78;21275;-52
2021/07/06 03:50:33;;;;;;;2.35;1.20;;;;;;;22.64;68.45;99079.11;1760994;80;21523;-53
2021/07/06 03:53:00;;;;;;;3.80;1.00;;;;;;;22.67;68.43;99077.41;1743943;80;21128;-54
2021/07/06 03:55:27;;;;;;;1.90;1.02;;;;;;;22.71;68.21;99083.44;1795128;78;21069;-53
2021/07/06 03:57:54;;;;;;;5.60;1.10;;;;;;;22.73;68.25;99082.22;1763589;79;21114;-53
2021/07/06 04:00:25;;;;;;;1.00;0.90;;;;;;;22.78;68.31;99088.12;1756778;79;21428;-54
2021/07/06 04:02:51;;;;;;;1.20;1.00;;;;;;;22.84;68.00;99092.06;1762043;79;21080;-53
2021/07/06 04:05:18;;;;;;;2.70;1.00;;;;;;;22.88;67.77;99086.06;1758262;79;22166;-52
2021/07/06 04:07:44;;;;;;;3.22;1.40;;;;;;;22.91;67.57;99093.11;1768620;79;21092;-53
2021/07/06 04:10:13;;;;;;;3.08;1.27;;;;;;;22.94;67.43;99100.50;1777754;79;21054;-52
2021/07/06 04:12:39;;;;;;;5.85;1.27;;;;;;;22.93;67.56;99093.80;1773409;79;21198;-52
2021/07/06 04:15:07;;;;;;;2.35;0.90;;;;;;;22.90;67.37;99092.24;1770181;79;21391;-53
2021/07/06 04:17:33;;;;;;;1.42;1.12;;;;;;;22.88;67.45;99093.46;1778043;79;22298;-52
2021/07/06 04:20:00;;;;;;;1.22;1.10;;;;;;;22.88;67.50;99092.92;1778798;79;21758;-54
2021/07/06 04:22:27;;;;;;;1.65;1.27;;;;;;;22.89;67.67;99092.41;1777620;79;21488;-53
2021/07/06 04:24:54;;;;;;;2.12;1.10;;;;;;;22.93;67.64;99089.69;1778454;79;21374;-56
2021/07/06 04:27:21;;;;;;;1.98;1.07;;;;;;;22.96;67.71;99095.71;1779391;79;20922;-53
2021/07/06 04:29:48;;;;;;;1.40;1.30;;;;;;;23.00;67.33;99094.84;1778524;79;21845;-51
2021/07/06 04:32:16;;;;;;;2.33;1.15;;;;;;;22.98;67.10;99095.00;1772902;79;20932;-53
2021/07/06 04:34:44;;;;;;;3.75;1.20;;;;;;;22.96;67.41;99092.11;1767096;79;21000;-53
2021/07/06 04:37:12;;;;;;;2.55;1.02;;;;;;;22.98;67.60;99094.14;1767094;80;20871;-54
2021/07/06 04:39:39;;;;;;;1.60;1.00;;;;;;;23.01;67.69;99098.80;1780735;79;20969;-53
2021/07/06 04:42:16;;;;;;;3.70;1.10;;;;;;;23.04;67.62;99098.98;1749381;79;21888;-54
2021/07/06 04:44:38;;;;;;;3.85;1.30;;;;;;;23.07;67.68;99100.00;1763815;78;21394;-52
2021/07/06 04:47:05;;;;;;;2.95;1.42;;;;;;;23.11;67.59;99103.27;1795727;78;20902;-52
2021/07/06 04:49:35;;;;;;;1.50;1.40;;;;;;;23.12;67.25;99101.73;1767095;78;20910;-52
2021/07/06 04:52:02;;;;;;;2.72;1.80;;;;;;;23.13;67.09;99106.20;1791464;78;20986;-52
2021/07/06 04:54:28;;;;;;;4.03;1.42;;;;;;;23.10;66.93;99109.28;1792922;78;21057;-53
2021/07/06 04:56:55;;;;;;;3.90;1.40;;;;;;;23.06;66.97;99110.63;1796288;78;20899;-52
2021/07/06 04:59:21;;;;;;;1.77;1.10;;;;;;;23.03;67.00;99108.75;1797335;78;21780;-54
2021/07/06 05:01:48;;;;;;;1.95;1.10;;;;;;;22.99;67.33;99114.56;1762512;80;22510;-54
2021/07/06 05:04:15;;;;;;;2.27;1.35;;;;;;;22.97;67.34;99107.52;1758414;80;21582;-51
2021/07/06 05:06:41;;;;;;;1.70;1.17;;;;;;;22.96;67.35;99108.58;1787692;78;21128;-53
2021/07/06 05:09:08;;;;;;;4.92;1.65;;;;;;;22.98;67.61;99098.27;1760674;80;21081;-54
2021/07/06 05:11:36;;;;;;;4.87;1.25;;;;;;;23.00;67.69;99105.82;1766799;79;21132;-51
2021/07/06 05:14:03;;;;;;;3.15;2.25;;;;;;;23.00;67.61;99108.05;1760250;80;21034;-51
2021/07/06 05:16:31;;;;;;;1.55;1.45;;;;;;;23.03;67.49;99104.63;1778190;79;20950;-53
2021/07/06 05:18:57;;;;;;;1.42;1.25;;;;;;;23.06;67.51;99107.02;1776888;79;21142;-53
2021/07/06 05:21:25;;;;;;;2.35;1.80;;;;;;;23.07;67.61;99094.50;1778716;79;21173;-52
2021/07/06 05:23:51;;;;;;;3.58;1.20;;;;;;;23.11;67.72;99102.77;1792077;77;20998;-51
2021/07/06 05:26:18;;;;;;;1.30;1.20;;;;;;;23.16;67.80;99093.49;1761978;79;21091;-51
2021/07/06 05:28:44;;;;;;;1.65;1.55;;;;;;;23.21;67.67;99099.35;1767564;79;21142;-52
2021/07/06 05:31:10;;;;;;;1.72;1.40;;;;;;;23.25;67.56;99095.22;1772707;79;22452;-52
2021/07/06 05:33:37;;;;;;;2.70;1.50;;;;;;;23.28;67.18;99098.15;1771468;80;21029;-52
2021/07/06 05:36:05;;;;;;;3.45;1.40;;;;;;;23.29;66.89;99098.50;1774909;79;21535;-50
2021/07/06 05:38:31;;;;;;;2.75;1.30;;;;;;;23.30;67.14;99094.73;1775442;79;21061;-52
2021/07/06 05:40:57;;;;;;;2.47;1.80;;;;;;;23.32;67.28;99099.00;1774069;79;21581;-52
2021/07/06 05:43:26;;;;;;;1.65;1.30;;;;;;;23.34;67.43;99095.58;1775178;80;22376;-50
2021/07/06 05:45:55;;;;;;;2.83;1.50;;;;;;;23.38;67.67;99105.20;1776202;80;21029;-52
2021/07/06 05:48:22;;;;;;;4.10;1.62;;;;;;;23.40;67.59;99103.63;1793151;77;21052;-52
2021/07/06 05:50:48;;;;;;;2.65;1.72;;;;;;;23.43;67.58;99103.81;1747085;79;21124;-54
2021/07/06 05:53:15;;;;;;;2.95;2.35;;;;;;;23.48;67.29;99102.26;1774534;79;21621;-52
2021/07/06 05:55:47;;;;;;;3.45;2.05;;;;;;;23.52;67.17;99108.31;1771003;79;22129;-52
2021/07/06 05:58:11;;;;;;;2.27;1.52;;;;;;;23.54;66.47;99099.39;1759833;80;21013;-51
2021/07/06 06:00:42;;;;;;;2.60;1.65;;;;;;;23.55;66.88;99109.35;1795188;79;21052;-51
2021/07/06 06:03:10;;;;;;;2.62;2.42;;;;;;;23.56;66.98;99107.78;1777797;79;21300;-52
2021/07/06 06:05:39;;;;;;;1.67;1.52;;;;;;;23.61;67.12;99110.89;1777442;79;21003;-50
2021/07/06 06:08:06;;;;;;;4.50;1.50;;;;;;;23.69;66.94;99110.89;1770981;79;21437;-51
2021/07/06 06:10:32;;;;;;;2.35;1.60;;;;;;;23.79;66.53;99105.73;1777928;79;21147;-52
2021/07/06 06:12:58;;;;;;;6.65;2.02;;;;;;;23.92;66.55;99113.77;1779831;79;21046;-50
2021/07/06 06:15:25;;;;;;;4.92;2.05;;;;;;;24.05;65.93;99111.88;1777348;78;21383;-52
2021/07/06 06:17:51;;;;;;;4.92;1.72;;;;;;;24.17;65.50;99115.09;1778682;79;21511;-50
2021/07/06 06:20:17;;;;;;;3.12;1.95;;;;;;;24.28;65.16;99117.51;1778856;79;21122;-52
2021/07/06 06:22:44;;;;;;;4.08;2.00;;;;;;;24.34;64.86;99116.80;1792491;79;21076;-52
2021/07/06 06:25:10;;;;;;;2.77;1.72;;;;;;;24.35;64.59;99123.50;1773331;79;21054;-52
2021/07/06 06:27:38;;;;;;;2.27;1.32;;;;;;;24.36;64.77;99115.59;1772572;79;21506;-53
2021/07/06 06:30:08;;;;;;;1.67;1.35;;;;;;;24.37;64.30;99117.83;1779041;79;21092;-54
2021/07/06 06:32:34;;;;;;;2.52;1.72;;;;;;;24.33;64.30;99119.23;1780176;79;21097;-53
2021/07/06 06:35:00;;;;;;;1.82;1.57;;;;;;;24.29;64.27;99121.47;1774828;79;21481;-53
2021/07/06 06:37:26;;;;;;;4.40;1.40;;;;;;;24.25;64.35;99128.85;1777539;79;21056;-53
2021/07/06 06:39:53;;;;;;;1.62;1.52;;;;;;;24.22;64.70;99127.33;1774886;79;22410;-54
2021/07/06 06:42:19;;;;;;;1.95;1.85;;;;;;;24.25;65.05;99139.84;1778045;79;21064;-52
2021/07/06 06:44:45;;;;;;;4.70;1.45;;;;;;;24.24;64.77;99130.77;1776581;79;21618;-53
2021/07/06 06:47:13;;;;;;;2.92;1.47;;;;;;;24.24;64.71;99135.41;1779580;79;21056;-54
2021/07/06 06:49:39;;;;;;;6.17;1.75;;;;;;;24.24;64.61;99137.65;1777444;79;21114;-54
2021/07/06 06:52:06;;;;;;;3.62;1.47;;;;;;;24.30;64.87;99131.95;1776012;79;21115;-52
2021/07/06 06:57:14;;;;;;;4.75;1.77;;;;;;;24.50;64.39;99129.11;1862583;75;23459;-53
2021/07/06 06:59:40;;;;;;;3.47;1.65;;;;;;;24.52;64.51;99131.17;1829722;77;21062;-54
2021/07/06 07:02:17;;;;;;;4.62;2.05;;;;;;;24.58;64.59;99131.00;1831629;77;22386;-52
2021/07/06 07:04:44;;;;;;;5.72;2.33;;;;;;;24.58;63.95;99127.73;1799419;78;22429;-52
2021/07/06 07:07:13;;;;;;;3.65;2.50;;;;;;;24.58;63.76;99129.63;1779638;78;21619;-56
2021/07/06 07:09:40;;;;;;;3.75;1.60;;;;;;;24.52;63.66;99127.05;1768223;79;20934;-55
2021/07/06 07:12:07;;;;;;;2.22;1.62;;;;;;;24.50;64.10;99124.47;1781528;78;21071;-56
2021/07/06 07:14:35;;;;;;;6.90;1.65;;;;;;;24.51;64.71;99130.31;1770256;79;21497;-54
2021/07/06 07:17:03;;;;;;;3.83;1.90;;;;;;;24.59;64.96;99132.17;1798694;78;21243;-54
2021/07/06 07:19:31;;;;;;;2.65;1.50;;;;;;;24.67;64.61;99130.77;1796497;78;21100;-54
2021/07/06 07:21:57;;;;;;;3.08;2.12;;;;;;;24.71;63.98;99129.39;1794866;78;21239;-55
2021/07/06 07:24:24;;;;;;;3.77;2.25;;;;;;;24.73;63.56;99127.84;1795663;78;21690;-55
2021/07/06 07:26:50;;;;;;;2.72;1.80;;;;;;;24.72;63.44;99134.38;1797027;78;21092;-55
2021/07/06 07:29:17;;;;;;;3.87;2.30;;;;;;;24.71;63.64;99132.66;1778206;78;21097;-55
2021/07/06 07:31:43;;;;;;;1.70;1.60;;;;;;;24.72;63.83;99137.13;1768662;79;20911;-54
2021/07/06 07:34:10;;;;;;;2.15;1.30;;;;;;;24.74;63.65;99135.06;1765244;79;20938;-54
2021/07/06 07:36:37;;;;;;;2.85;1.05;;;;;;;24.77;63.86;99141.05;1799249;78;20921;-55
2021/07/06 07:39:03;;;;;;;4.80;1.30;;;;;;;24.84;63.47;99143.41;1784154;78;21788;-54
2021/07/06 07:41:30;;;;;;;2.92;1.25;;;;;;;24.93;62.64;99140.13;1805703;78;20942;-54
2021/07/06 07:43:56;;;;;;;3.22;1.40;;;;;;;24.99;62.30;99134.45;1777914;78;20969;-56
2021/07/06 07:46:22;;;;;;;1.90;1.32;;;;;;;25.01;61.45;99139.27;1801221;78;21061;-56
2021/07/06 07:48:49;;;;;;;2.40;1.20;;;;;;;25.02;61.49;99147.83;1800548;78;21072;-54
2021/07/06 07:51:17;;;;;;;1.92;1.10;;;;;;;25.00;61.73;99143.05;1801637;78;21104;-56
2021/07/06 07:53:45;;;;;;;2.27;1.52;;;;;;;25.02;61.63;99141.81;1780445;79;20978;-55
2021/07/06 07:56:12;;;;;;;3.60;1.40;;;;;;;25.04;61.58;99145.25;1776616;78;21111;-54
2021/07/06 07:58:39;;;;;;;2.20;1.30;;;;;;;25.07;61.73;99133.02;1771046;78;21613;-54
2021/07/06 08:01:06;;;;;;;1.20;1.10;;;;;;;25.15;62.19;99138.48;1780999;79;20950;-54
2021/07/06 08:03:40;;;;;;;2.52;1.35;;;;;;;25.24;61.00;99138.25;1783207;78;21108;-56
2021/07/06 08:06:06;;;;;;;1.67;1.45;;;;;;;25.31;60.85;99141.13;1806185;78;27954;-55
2021/07/06 08:08:32;;;;;;;3.05;1.50;;;;;;;25.38;60.64;99150.37;1778413;78;21074;-55
2021/07/06 08:11:01;;;;;;;2.45;1.30;;;;;;;25.41;60.83;99145.88;1783154;78;22489;-54
2021/07/06 08:13:32;;;;;;;1.72;1.30;;;;;;;25.44;60.89;99142.73;1784026;78;21416;-55
2021/07/06 08:15:58;;;;;;;3.70;1.45;;;;;;;25.49;60.66;99144.45;1805665;78;21041;-55
2021/07/06 08:18:24;;;;;;;1.45;1.27;;;;;;;25.53;60.05;99143.53;1804564;78;21062;-55
2021/07/06 08:20:51;;;;;;;5.72;1.50;;;;;;;25.56;59.82;99144.56;1774754;80;21073;-55
2021/07/06 08:23:19;;;;;;;1.32;1.22;;;;;;;25.61;60.06;99151.25;1783068;78;20971;-55
2021/07/06 08:25:46;;;;;;;4.55;1.27;;;;;;;25.68;59.88;99149.16;1805552;78;21041;-55
2021/07/06 08:28:14;;;;;;;4.60;1.30;;;;;;;25.76;60.17;99140.82;1777012;78;21111;-55
2021/07/06 08:30:40;;;;;;;3.08;1.10;;;;;;;25.83;60.18;99150.06;1806313;78;21096;-57
2021/07/06 08:33:07;;;;;;;2.08;1.12;;;;;;;25.93;59.70;99147.91;1780026;78;21041;-56
2021/07/06 08:35:33;;;;;;;1.42;1.32;;;;;;;26.03;59.30;99154.54;1782235;78;21065;-56
2021/07/06 08:38:00;;;;;;;3.05;1.27;;;;;;;26.13;58.26;99153.73;1770405;80;21113;-56
2021/07/06 08:40:27;;;;;;;1.60;1.42;;;;;;;26.16;58.22;99145.95;1807469;77;21611;-54
2021/07/06 08:42:55;;;;;;;1.40;1.20;;;;;;;26.21;58.30;99146.75;1806040;78;21115;-55
2021/07/06 08:45:25;;;;;;;1.35;1.22;;;;;;;26.25;58.30;99143.96;1808895;78;22348;-55
2021/07/06 08:47:53;;;;;;;2.45;1.37;;;;;;;26.28;58.31;99154.66;1777294;79;20989;-55
2021/07/06 08:50:19;;;;;;;2.08;1.85;;;;;;;26.26;57.58;99157.60;1811876;78;20953;-55
2021/07/06 08:52:46;;;;;;;2.55;1.40;;;;;;;26.22;57.84;99146.56;1809879;78;21527;-54
2021/07/06 08:55:16;;;;;;;1.92;1.80;;;;;;;26.19;57.92;99151.09;1774822;80;21084;-55
2021/07/06 08:57:44;;;;;;;2.05;1.85;;;;;;;26.20;58.17;99150.58;1777703;79;20902;-54
2021/07/06 09:00:13;;;;;;;1.92;1.60;;;;;;;26.24;58.57;99148.62;1778785;79;21116;-54
2021/07/06 09:02:39;;;;;;;4.80;1.52;;;;;;;26.28;58.37;99144.48;1769154;79;21116;-54
2021/07/06 09:05:20;;;;;;;2.35;1.20;;;;;;;26.32;58.41;99147.19;1776393;79;21120;-54
2021/07/06 09:07:47;;;;;;;9.10;2.08;;;;;;;26.38;58.30;99149.70;1750220;79;20977;-55
2021/07/06 09:10:16;;;;;;;3.42;1.40;;;;;;;26.45;58.14;99152.58;1775577;79;21032;-55
2021/07/06 09:12:44;;;;;;;2.65;1.20;;;;;;;26.49;58.00;99146.48;1797251;77;21092;-54
2021/07/06 09:15:26;;;;;;;4.58;1.45;;;;;;;26.51;57.71;99149.05;1785905;78;21321;-54
2021/07/06 09:18:13;;;;;;;3.30;1.85;;;;;;;26.45;57.28;99152.58;1801704;78;22160;-54
2021/07/06 09:20:40;;;;;;;4.25;2.12;;;;;;;26.37;57.37;99156.26;1802936;78;21685;-55
2021/07/06 09:23:34;;;;;;;4.20;2.35;;;;;;;26.35;57.51;99147.34;1800025;77;21049;-55
2021/07/06 09:26:25;;;;;;;3.42;1.40;;;;;;;26.33;57.79;99153.04;1776077;79;21081;-54
2021/07/06 09:28:55;;;;;;;2.00;1.42;;;;;;;26.30;57.61;99147.89;1788383;78;21112;-53
2021/07/06 09:31:33;;;;;;;4.12;1.65;;;;;;;26.32;57.80;99141.67;1785338;78;21085;-54
2021/07/06 09:34:10;;;;;;;3.58;2.00;;;;;;;26.37;58.23;99148.84;1781327;79;21036;-54
2021/07/06 09:36:45;;;;;;;3.22;1.92;;;;;;;26.44;58.35;99154.48;1800606;77;21024;-53
2021/07/06 09:39:24;;;;;;;2.65;2.45;;;;;;;26.53;58.40;99150.59;1801104;78;21104;-53
2021/07/06 09:44:24;;;;;;;1.87;1.67;;;;;;;26.73;58.11;99148.08;1849930;74;22713;-53
2021/07/06 09:47:08;;;;;;;2.58;2.00;;;;;;;26.79;57.63;99152.00;1832588;76;21059;-53
2021/07/06 09:50:00;;;;;;;2.33;2.12;;;;;;;26.89;57.39;99148.39;1840697;76;21148;-52
2021/07/06 09:52:24;;;;;;;4.72;1.70;;;;;;;27.00;57.08;99150.17;1839402;76;21021;-53
2021/07/06 09:54:54;;;;;;;1.80;1.70;;;;;;;27.16;57.03;99145.47;1838285;76;20911;-53
2021/07/06 09:57:29;;;;;;;1.62;1.52;;;;;;;27.23;54.88;99152.78;1837372;75;21049;-56
2021/07/06 10:00:08;;;;;;;6.83;1.70;;;;;;;27.27;54.94;99160.17;1839280;76;21117;-54
2021/07/06 10:02:44;;;;;;;1.40;1.30;;;;;;;27.31;54.65;99150.42;1841558;76;21140;-53
2021/07/06 10:05:17;;;;;;;2.55;1.20;;;;;;;27.37;54.29;99154.66;1839525;75;21044;-53
2021/07/06 10:07:45;;;;;;;1.37;1.27;;;;;;;27.43;54.69;99148.88;1840191;75;21449;-55
2021/07/06 10:10:13;;;;;;;1.75;1.20;;;;;;;27.55;54.40;99153.40;1839337;75;21167;-53
2021/07/06 10:12:44;;;;;;;2.72;1.10;;;;;;;27.65;52.36;99154.76;1837864;75;21096;-53
2021/07/06 10:15:14;;;;;;;4.60;1.50;;;;;;;27.71;52.54;99159.52;1838912;75;21174;-54
2021/07/06 10:17:40;;;;;;;4.12;1.12;;;;;;;27.78;52.86;99152.14;1842014;75;21121;-54
2021/07/06 10:20:10;;;;;;;1.52;1.20;;;;;;;27.90;52.79;99155.77;1838192;75;21140;-54
2021/07/06 10:22:37;;;;;;;5.65;1.10;;;;;;;27.98;52.88;99155.62;1845127;75;20939;-53
2021/07/06 10:25:07;;;;;;;3.83;1.10;;;;;;;28.04;52.37;99158.44;1843385;75;20868;-54
2021/07/06 10:27:36;;;;;;;4.97;1.37;;;;;;;28.03;51.66;99159.48;1837357;75;21471;-53
2021/07/06 10:30:11;;;;;;;3.22;1.00;;;;;;;28.05;51.83;99156.52;1835942;75;21069;-54
2021/07/06 10:32:50;;;;;;;1.80;1.22;;;;;;;28.08;51.97;99161.64;1843398;76;20887;-54
2021/07/06 10:35:17;;;;;;;1.70;1.10;;;;;;;28.09;52.45;99163.34;1841769;75;20872;-54
2021/07/06 10:37:44;;;;;;;1.20;1.10;;;;;;;28.09;51.92;99164.73;1841676;75;20935;-55
2021/07/06 10:40:17;;;;;;;3.90;1.20;;;;;;;28.05;51.12;99160.67;1841350;76;21066;-54
2021/07/06 10:42:45;;;;;;;2.17;1.10;;;;;;;27.94;50.97;99162.06;1821380;76;21791;-52
2021/07/06 10:45:24;;;;;;;2.83;1.02;;;;;;;27.86;51.48;99165.83;1815287;77;21041;-52
2021/07/06 10:47:52;;;;;;;2.77;1.10;;;;;;;27.86;52.21;99167.20;1811679;77;22235;-52
2021/07/06 10:50:33;;;;;;;2.75;1.00;;;;;;;27.93;52.28;99164.50;1817138;77;21453;-55
2021/07/06 10:53:23;;;;;;;2.50;0.90;;;;;;;28.01;52.39;99166.27;1802960;77;22552;-53
2021/07/06 10:56:06;;;;;;;3.85;1.00;;;;;;;28.08;52.45;99172.17;1812447;77;21063;-52
2021/07/06 10:58:56;;;;;;;2.47;1.20;;;;;;;28.09;52.20;99170.27;1812886;77;21062;-52
2021/07/06 11:01:45;;;;;;;5.87;1.47;;;;;;;28.09;52.62;99171.65;1817146;77;21525;-54
2021/07/06 11:04:13;;;;;;;5.03;1.00;;;;;;;28.04;52.75;99176.94;1813330;77;21094;-52
2021/07/06 11:06:50;;;;;;;2.80;1.00;;;;;;;28.03;52.94;99178.84;1812350;77;21540;-54
2021/07/06 11:09:34;;;;;;;5.53;1.20;;;;;;;28.06;53.41;99176.22;1809841;77;21125;-53
2021/07/06 11:12:38;;;;;;;3.37;0.95;;;;;;;28.05;53.82;99171.22;1812624;77;21109;-53
2021/07/06 11:15:16;;;;;;;2.20;0.80;;;;;;;28.09;53.43;99182.19;1812787;78;21085;-52
2021/07/06 11:17:46;;;;;;;1.10;1.00;;;;;;;28.14;53.41;99181.08;1813791;77;21256;-53
2021/07/06 11:20:18;;;;;;;4.03;1.10;;;;;;;28.20;52.97;99188.61;1812301;77;21107;-52
2021/07/06 11:22:55;;;;;;;1.27;0.90;;;;;;;28.24;52.82;99186.31;1816143;77;20915;-53
2021/07/06 11:25:34;;;;;;;1.15;1.00;;;;;;;28.27;52.96;99183.64;1813371;77;21360;-52
2021/07/06 11:28:26;;;;;;;1.85;1.12;;;;;;;28.29;52.58;99184.30;1783796;77;21141;-52
2021/07/06 11:31:02;;;;;;;2.33;1.00;;;;;;;28.22;52.18;99185.64;1813735;77;22394;-54
2021/07/06 11:33:40;;;;;;;2.65;1.00;;;;;;;28.17;52.08;99182.60;1810541;77;21184;-54
2021/07/06 11:36:26;;;;;;;3.10;1.72;;;;;;;28.11;53.06;99177.32;1785521;77;20939;-53
2021/07/06 11:38:55;;;;;;;3.00;1.07;;;;;;;28.05;52.90;99186.43;1812882;77;21105;-52
2021/07/06 11:41:23;;;;;;;1.22;1.12;;;;;;;28.06;53.21;99187.28;1816809;77;21014;-53
2021/07/06 11:43:51;;;;;;;1.80;0.95;;;;;;;28.13;52.72;99182.66;1810732;77;21058;-54
2021/07/06 11:46:21;;;;;;;2.80;1.00;;;;;;;28.21;52.82;99189.47;1809556;77;21201;-53
2021/07/06 11:48:49;;;;;;;3.75;1.10;;;;;;;28.29;53.23;99181.02;1810957;77;20924;-53